sensor_id;sensor_type;location;lat;lon;timestamp;temperature;humidity
31455;DHT22;18084;53.028;8.834;2023-06-04T04:40:29;11.30;1.00
31455;DHT22;18084;53.028;8.834;2023-06-04T04:42:55;12.60;1.00
31455;DHT22;18084;53.028;8.834;2023-06-04T04:45:21;11.90;1.00
31455;DHT22;18084;53.028;8.834;2023-06-04T04:47:47;12.00;99.90
31455;DHT22;18084;53.028;8.834;2023-06-04T04:50:13;12.10;99.90
31455;DHT22;18084;53.028;8.834;2023-06-04T04:52:38;12.50;99.90
31455;DHT22;18084;53.028;8.834;2023-06-04T04:55:04;12.70;99.90
31455;DHT22;18084;53.028;8.834;2023-06-04T04:57:30;12.80;7.30
31455;DHT22;18084;53.028;8.834;2023-06-04T04:59:55;13.00;1.00
31455;DHT22;18084;53.028;8.834;2023-06-04T05:02:21;13.10;99.90
31455;DHT22;18084;53.028;8.834;2023-06-04T05:04:46;13.20;99.90
31455;DHT22;18084;53.028;8.834;2023-06-04T05:07:12;13.60;99.90
31455;DHT22;18084;53.028;8.834;2023-06-04T05:09:37;13.60;99.90
31455;DHT22;18084;53.028;8.834;2023-06-04T05:12:03;13.80;99.90
31455;DHT22;18084;53.028;8.834;2023-06-04T05:14:29;14.00;99.90
31455;DHT22;18084;53.028;8.834;2023-06-04T05:16:55;14.20;4.00
31455;DHT22;18084;53.028;8.834;2023-06-04T05:19:23;14.40;99.90
31455;DHT22;18084;53.028;8.834;2023-06-04T05:24:16;14.70;1.00
31455;DHT22;18084;53.028;8.834;2023-06-04T05:26:41;14.80;99.90
31455;DHT22;18084;53.028;8.834;2023-06-04T05:29:07;14.80;1.00
31455;DHT22;18084;53.028;8.834;2023-06-04T05:31:33;15.50;99.90
31455;DHT22;18084;53.028;8.834;2023-06-04T05:34:00;15.30;82.90
31455;DHT22;18084;53.028;8.834;2023-06-04T05:36:29;15.30;99.90
31455;DHT22;18084;53.028;8.834;2023-06-04T05:38:55;16.00;14.70
31455;DHT22;18084;53.028;8.834;2023-06-04T05:41:25;16.20;99.90
31455;DHT22;18084;53.028;8.834;2023-06-04T05:43:51;16.30;99.90
31455;DHT22;18084;53.028;8.834;2023-06-04T05:46:17;16.50;99.90
31455;DHT22;18084;53.028;8.834;2023-06-04T05:48:42;16.70;99.90
31455;DHT22;18084;53.028;8.834;2023-06-04T05:51:09;16.60;99.90
31455;DHT22;18084;53.028;8.834;2023-06-04T05:53:35;16.60;99.90
31455;DHT22;18084;53.028;8.834;2023-06-04T05:56:00;16.60;99.90
31455;DHT22;18084;53.028;8.834;2023-06-04T05:58:26;16.90;99.90
31455;DHT22;18084;53.028;8.834;2023-06-04T06:00:51;17.20;99.90
31455;DHT22;18084;53.028;8.834;2023-06-04T06:03:19;17.40;62.90
31455;DHT22;18084;53.028;8.834;2023-06-04T06:05:45;17.70;24.90
31455;DHT22;18084;53.028;8.834;2023-06-04T06:08:10;18.00;1.00
31455;DHT22;18084;53.028;8.834;2023-06-04T06:10:36;18.30;1.00
31455;DHT22;18084;53.028;8.834;2023-06-04T06:13:02;18.80;1.00
31455;DHT22;18084;53.028;8.834;2023-06-04T06:15:27;19.10;99.90
31455;DHT22;18084;53.028;8.834;2023-06-04T06:17:54;19.20;99.90
31455;DHT22;18084;53.028;8.834;2023-06-04T06:22:47;19.30;99.90
31455;DHT22;18084;53.028;8.834;2023-06-04T06:25:13;18.60;99.90
31455;DHT22;18084;53.028;8.834;2023-06-04T06:27:39;18.80;99.90
31455;DHT22;18084;53.028;8.834;2023-06-04T06:30:07;19.70;99.90
31455;DHT22;18084;53.028;8.834;2023-06-04T06:32:33;19.70;99.90
31455;DHT22;18084;53.028;8.834;2023-06-04T06:34:58;19.70;99.90
31455;DHT22;18084;53.028;8.834;2023-06-04T06:37:24;20.00;99.90
31455;DHT22;18084;53.028;8.834;2023-06-04T06:39:49;20.60;99.90
31455;DHT22;18084;53.028;8.834;2023-06-04T06:44:44;20.70;99.90
31455;DHT22;18084;53.028;8.834;2023-06-04T06:47:10;20.60;99.90
31455;DHT22;18084;53.028;8.834;2023-06-04T06:49:41;20.60;99.90
31455;DHT22;18084;53.028;8.834;2023-06-04T06:52:06;20.70;99.90
31455;DHT22;18084;53.028;8.834;2023-06-04T06:54:32;21.40;99.90
31455;DHT22;18084;53.028;8.834;2023-06-04T06:56:58;22.10;99.90
31455;DHT22;18084;53.028;8.834;2023-06-04T06:59:23;21.90;99.90
31455;DHT22;18084;53.028;8.834;2023-06-04T07:01:51;21.70;99.90
31455;DHT22;18084;53.028;8.834;2023-06-04T07:04:16;21.80;99.90
31455;DHT22;18084;53.028;8.834;2023-06-04T07:06:43;22.20;99.90
31455;DHT22;18084;53.028;8.834;2023-06-04T07:09:08;22.70;99.90
31455;DHT22;18084;53.028;8.834;2023-06-04T07:11:34;22.60;99.90
31455;DHT22;18084;53.028;8.834;2023-06-04T07:14:00;23.30;99.90
31455;DHT22;18084;53.028;8.834;2023-06-04T07:16:28;23.50;99.90
31455;DHT22;18084;53.028;8.834;2023-06-04T07:18:53;23.80;99.90
31455;DHT22;18084;53.028;8.834;2023-06-04T07:21:19;23.40;99.90
31455;DHT22;18084;53.028;8.834;2023-06-04T07:23:45;23.40;99.90
31455;DHT22;18084;53.028;8.834;2023-06-04T07:26:15;23.30;99.90
31455;DHT22;18084;53.028;8.834;2023-06-04T07:28:40;22.60;99.90
31455;DHT22;18084;53.028;8.834;2023-06-04T07:31:06;22.60;99.90
31455;DHT22;18084;53.028;8.834;2023-06-04T07:33:31;23.10;99.90
31455;DHT22;18084;53.028;8.834;2023-06-04T07:36:00;24.90;99.90
31455;DHT22;18084;53.028;8.834;2023-06-04T07:38:26;23.70;99.90
31455;DHT22;18084;53.028;8.834;2023-06-04T07:40:52;23.70;99.90
31455;DHT22;18084;53.028;8.834;2023-06-04T07:43:18;23.80;99.90
31455;DHT22;18084;53.028;8.834;2023-06-04T07:45:43;24.50;99.90
31455;DHT22;18084;53.028;8.834;2023-06-04T07:48:09;24.30;99.90
31455;DHT22;18084;53.028;8.834;2023-06-04T07:50:36;24.60;99.90
31455;DHT22;18084;53.028;8.834;2023-06-04T07:53:03;26.10;99.90
31455;DHT22;18084;53.028;8.834;2023-06-04T07:55:29;24.80;99.90
31455;DHT22;18084;53.028;8.834;2023-06-04T07:57:55;24.10;99.90
31455;DHT22;18084;53.028;8.834;2023-06-04T08:05:16;24.50;99.90
31455;DHT22;18084;53.028;8.834;2023-06-04T08:10:09;25.20;99.90
31455;DHT22;18084;53.028;8.834;2023-06-04T08:15:00;25.00;99.90
31455;DHT22;18084;53.028;8.834;2023-06-04T08:17:26;28.30;99.90
31455;DHT22;18084;53.028;8.834;2023-06-04T08:19:52;25.60;99.90
31455;DHT22;18084;53.028;8.834;2023-06-04T08:27:09;25.00;96.30
31455;DHT22;18084;53.028;8.834;2023-06-04T08:29:35;25.80;99.90
31455;DHT22;18084;53.028;8.834;2023-06-04T08:32:02;24.90;99.90
31455;DHT22;18084;53.028;8.834;2023-06-04T08:36:55;25.00;95.00
31455;DHT22;18084;53.028;8.834;2023-06-04T08:39:21;24.70;98.40
31455;DHT22;18084;53.028;8.834;2023-06-04T08:41:54;24.50;98.60
31455;DHT22;18084;53.028;8.834;2023-06-04T08:44:22;24.40;97.50
31455;DHT22;18084;53.028;8.834;2023-06-04T08:46:51;24.60;99.90
31455;DHT22;18084;53.028;8.834;2023-06-04T08:49:19;24.60;96.90
31455;DHT22;18084;53.028;8.834;2023-06-04T08:51:46;25.10;99.00
31455;DHT22;18084;53.028;8.834;2023-06-04T08:54:12;25.60;96.60
31455;DHT22;18084;53.028;8.834;2023-06-04T08:56:38;25.40;95.60
31455;DHT22;18084;53.028;8.834;2023-06-04T08:59:05;25.10;94.10
31455;DHT22;18084;53.028;8.834;2023-06-04T09:01:33;26.30;93.90
31455;DHT22;18084;53.028;8.834;2023-06-04T09:04:01;25.20;93.70
31455;DHT22;18084;53.028;8.834;2023-06-04T09:06:27;24.80;92.20
31455;DHT22;18084;53.028;8.834;2023-06-04T09:08:56;25.00;93.00
31455;DHT22;18084;53.028;8.834;2023-06-04T09:11:33;25.50;91.20
31455;DHT22;18084;53.028;8.834;2023-06-04T09:14:02;25.90;91.20
31455;DHT22;18084;53.028;8.834;2023-06-04T09:16:28;25.20;91.30
31455;DHT22;18084;53.028;8.834;2023-06-04T09:19:02;25.70;90.50
31455;DHT22;18084;53.028;8.834;2023-06-04T09:21:27;25.40;90.40
31455;DHT22;18084;53.028;8.834;2023-06-04T09:23:53;25.00;87.50
31455;DHT22;18084;53.028;8.834;2023-06-04T09:26:19;25.60;89.20
31455;DHT22;18084;53.028;8.834;2023-06-04T09:28:46;25.90;87.60
31455;DHT22;18084;53.028;8.834;2023-06-04T09:31:16;25.40;90.40
31455;DHT22;18084;53.028;8.834;2023-06-04T09:33:51;25.00;87.50
31455;DHT22;18084;53.028;8.834;2023-06-04T09:36:17;25.30;87.30
31455;DHT22;18084;53.028;8.834;2023-06-04T09:38:42;25.60;85.70
31455;DHT22;18084;53.028;8.834;2023-06-04T09:41:17;25.40;84.40
31455;DHT22;18084;53.028;8.834;2023-06-04T09:43:46;25.60;84.70
31455;DHT22;18084;53.028;8.834;2023-06-04T09:46:14;25.20;85.90
31455;DHT22;18084;53.028;8.834;2023-06-04T09:48:41;25.10;81.50
31455;DHT22;18084;53.028;8.834;2023-06-04T09:51:08;25.00;84.10
31455;DHT22;18084;53.028;8.834;2023-06-04T09:53:36;25.40;82.30
31455;DHT22;18084;53.028;8.834;2023-06-04T09:56:03;24.60;83.40
31455;DHT22;18084;53.028;8.834;2023-06-04T09:58:30;24.50;84.30
31455;DHT22;18084;53.028;8.834;2023-06-04T10:00:57;25.60;87.10
31455;DHT22;18084;53.028;8.834;2023-06-04T10:03:24;24.40;83.90
31455;DHT22;18084;53.028;8.834;2023-06-04T10:05:56;24.30;85.70
31455;DHT22;18084;53.028;8.834;2023-06-04T10:08:22;24.70;84.60
31455;DHT22;18084;53.028;8.834;2023-06-04T10:10:52;24.60;84.90
31455;DHT22;18084;53.028;8.834;2023-06-04T10:13:21;24.40;85.30
31455;DHT22;18084;53.028;8.834;2023-06-04T10:15:49;24.30;83.40
31455;DHT22;18084;53.028;8.834;2023-06-04T10:18:15;24.40;82.60
31455;DHT22;18084;53.028;8.834;2023-06-04T10:20:42;24.50;85.70
31455;DHT22;18084;53.028;8.834;2023-06-04T10:23:07;25.40;82.40
31455;DHT22;18084;53.028;8.834;2023-06-04T10:25:36;25.50;81.70
31455;DHT22;18084;53.028;8.834;2023-06-04T10:28:02;24.90;85.50
31455;DHT22;18084;53.028;8.834;2023-06-04T10:30:29;24.60;79.00
31455;DHT22;18084;53.028;8.834;2023-06-04T10:32:56;25.80;82.00
31455;DHT22;18084;53.028;8.834;2023-06-04T10:35:32;24.50;78.70
31455;DHT22;18084;53.028;8.834;2023-06-04T10:38:08;24.30;77.40
31455;DHT22;18084;53.028;8.834;2023-06-04T10:40:35;24.50;78.90
31455;DHT22;18084;53.028;8.834;2023-06-04T10:43:12;24.40;79.20
31455;DHT22;18084;53.028;8.834;2023-06-04T10:45:38;25.20;80.00
31455;DHT22;18084;53.028;8.834;2023-06-04T10:48:05;24.80;82.10
31455;DHT22;18084;53.028;8.834;2023-06-04T10:50:32;24.80;78.50
31455;DHT22;18084;53.028;8.834;2023-06-04T10:53:00;24.50;78.40
31455;DHT22;18084;53.028;8.834;2023-06-04T10:55:31;23.90;79.50
31455;DHT22;18084;53.028;8.834;2023-06-04T10:58:00;24.10;79.70
31455;DHT22;18084;53.028;8.834;2023-06-04T11:00:44;24.30;83.60
31455;DHT22;18084;53.028;8.834;2023-06-04T11:03:14;24.40;80.70
31455;DHT22;18084;53.028;8.834;2023-06-04T11:05:45;24.60;80.10
31455;DHT22;18084;53.028;8.834;2023-06-04T11:08:11;24.60;80.70
31455;DHT22;18084;53.028;8.834;2023-06-04T11:10:45;25.80;83.60
31455;DHT22;18084;53.028;8.834;2023-06-04T11:13:11;24.60;79.90
31455;DHT22;18084;53.028;8.834;2023-06-04T11:15:42;24.60;82.40
31455;DHT22;18084;53.028;8.834;2023-06-04T11:18:08;24.70;80.20
31455;DHT22;18084;53.028;8.834;2023-06-04T11:20:38;24.50;80.40
31455;DHT22;18084;53.028;8.834;2023-06-04T11:23:04;24.20;81.20
31455;DHT22;18084;53.028;8.834;2023-06-04T11:25:32;24.30;82.20
31455;DHT22;18084;53.028;8.834;2023-06-04T11:27:59;24.40;82.60
31455;DHT22;18084;53.028;8.834;2023-06-04T11:30:27;26.00;81.50
31455;DHT22;18084;53.028;8.834;2023-06-04T11:33:08;23.90;78.20
31455;DHT22;18084;53.028;8.834;2023-06-04T11:35:41;24.40;81.00
31455;DHT22;18084;53.028;8.834;2023-06-04T11:38:09;24.40;81.30
31455;DHT22;18084;53.028;8.834;2023-06-04T11:40:34;23.80;70.20
31455;DHT22;18084;53.028;8.834;2023-06-04T11:43:01;23.70;82.20
31455;DHT22;18084;53.028;8.834;2023-06-04T11:45:27;24.10;81.50
31455;DHT22;18084;53.028;8.834;2023-06-04T11:47:56;24.30;82.30
31455;DHT22;18084;53.028;8.834;2023-06-04T11:50:25;24.30;79.70
31455;DHT22;18084;53.028;8.834;2023-06-04T11:52:53;24.60;80.90
31455;DHT22;18084;53.028;8.834;2023-06-04T11:55:19;25.00;84.40
31455;DHT22;18084;53.028;8.834;2023-06-04T11:57:49;24.60;76.10
31455;DHT22;18084;53.028;8.834;2023-06-04T12:00:16;24.50;80.60
31455;DHT22;18084;53.028;8.834;2023-06-04T12:02:53;24.70;90.20
31455;DHT22;18084;53.028;8.834;2023-06-04T12:05:21;24.60;79.90
31455;DHT22;18084;53.028;8.834;2023-06-04T12:07:48;24.40;79.00
31455;DHT22;18084;53.028;8.834;2023-06-04T12:10:19;24.30;78.80
31455;DHT22;18084;53.028;8.834;2023-06-04T12:12:46;25.80;81.70
31455;DHT22;18084;53.028;8.834;2023-06-04T12:15:12;24.90;81.60
31455;DHT22;18084;53.028;8.834;2023-06-04T12:17:53;24.80;79.20
31455;DHT22;18084;53.028;8.834;2023-06-04T12:20:38;25.00;78.90
31455;DHT22;18084;53.028;8.834;2023-06-04T12:23:04;24.90;90.50
31455;DHT22;18084;53.028;8.834;2023-06-04T12:25:31;24.90;79.40
31455;DHT22;18084;53.028;8.834;2023-06-04T12:27:57;25.30;76.80
31455;DHT22;18084;53.028;8.834;2023-06-04T12:30:23;24.90;78.20
31455;DHT22;18084;53.028;8.834;2023-06-04T12:32:48;24.80;77.20
31455;DHT22;18084;53.028;8.834;2023-06-04T12:35:14;24.80;77.60
31455;DHT22;18084;53.028;8.834;2023-06-04T12:37:41;24.40;78.50
31455;DHT22;18084;53.028;8.834;2023-06-04T12:40:07;24.60;81.00
31455;DHT22;18084;53.028;8.834;2023-06-04T12:42:34;24.90;66.80
31455;DHT22;18084;53.028;8.834;2023-06-04T12:44:59;24.80;68.50
31455;DHT22;18084;53.028;8.834;2023-06-04T12:47:25;24.80;78.40
31455;DHT22;18084;53.028;8.834;2023-06-04T12:49:51;24.70;75.60
31455;DHT22;18084;53.028;8.834;2023-06-04T12:52:18;28.10;78.60
31455;DHT22;18084;53.028;8.834;2023-06-04T12:54:43;25.00;77.50
31455;DHT22;18084;53.028;8.834;2023-06-04T12:57:09;24.90;78.20
31455;DHT22;18084;53.028;8.834;2023-06-04T12:59:34;24.50;75.80
31455;DHT22;18084;53.028;8.834;2023-06-04T13:02:00;26.30;76.90
31455;DHT22;18084;53.028;8.834;2023-06-04T13:04:26;24.70;75.30
31455;DHT22;18084;53.028;8.834;2023-06-04T13:06:53;25.00;76.90
31455;DHT22;18084;53.028;8.834;2023-06-04T13:09:24;24.90;78.70
31455;DHT22;18084;53.028;8.834;2023-06-04T13:11:50;25.00;77.60
31455;DHT22;18084;53.028;8.834;2023-06-04T13:14:16;25.00;77.30
31455;DHT22;18084;53.028;8.834;2023-06-04T13:16:42;25.30;77.90
31455;DHT22;18084;53.028;8.834;2023-06-04T13:19:08;25.30;76.00
31455;DHT22;18084;53.028;8.834;2023-06-04T13:21:34;26.20;78.90
31455;DHT22;18084;53.028;8.834;2023-06-04T13:24:00;24.80;77.30
31455;DHT22;18084;53.028;8.834;2023-06-04T13:26:26;24.60;76.40
31455;DHT22;18084;53.028;8.834;2023-06-04T13:28:51;25.20;78.90
31455;DHT22;18084;53.028;8.834;2023-06-04T13:31:17;24.70;78.00
31455;DHT22;18084;53.028;8.834;2023-06-04T13:33:43;25.10;77.10
31455;DHT22;18084;53.028;8.834;2023-06-04T13:36:09;25.00;78.00
31455;DHT22;18084;53.028;8.834;2023-06-04T13:38:34;26.40;80.90
31455;DHT22;18084;53.028;8.834;2023-06-04T13:41:00;25.00;84.40
31455;DHT22;18084;53.028;8.834;2023-06-04T13:43:25;26.40;78.10
31455;DHT22;18084;53.028;8.834;2023-06-04T13:45:51;25.00;76.40
31455;DHT22;18084;53.028;8.834;2023-06-04T13:48:17;24.60;77.00
31455;DHT22;18084;53.028;8.834;2023-06-04T13:50:42;25.10;76.40
31455;DHT22;18084;53.028;8.834;2023-06-04T13:53:08;25.00;74.70
31455;DHT22;18084;53.028;8.834;2023-06-04T13:55:34;25.00;78.60
31455;DHT22;18084;53.028;8.834;2023-06-04T13:58:00;27.40;76.80
31455;DHT22;18084;53.028;8.834;2023-06-04T14:00:25;27.50;78.20
31455;DHT22;18084;53.028;8.834;2023-06-04T14:02:51;25.10;73.40
31455;DHT22;18084;53.028;8.834;2023-06-04T14:05:17;25.10;75.20
31455;DHT22;18084;53.028;8.834;2023-06-04T14:07:44;25.50;73.80
31455;DHT22;18084;53.028;8.834;2023-06-04T14:10:10;25.00;80.70
31455;DHT22;18084;53.028;8.834;2023-06-04T14:12:37;26.20;85.30
31455;DHT22;18084;53.028;8.834;2023-06-04T14:15:04;24.80;73.40
31455;DHT22;18084;53.028;8.834;2023-06-04T14:17:29;24.60;82.50
31455;DHT22;18084;53.028;8.834;2023-06-04T14:19:55;25.00;90.00
31455;DHT22;18084;53.028;8.834;2023-06-04T14:22:33;24.50;90.00
31455;DHT22;18084;53.028;8.834;2023-06-04T14:25:03;24.60;79.80
31455;DHT22;18084;53.028;8.834;2023-06-04T14:27:28;24.50;89.70
31455;DHT22;18084;53.028;8.834;2023-06-04T14:29:54;24.70;90.90
31455;DHT22;18084;53.028;8.834;2023-06-04T14:32:20;24.60;90.40
31455;DHT22;18084;53.028;8.834;2023-06-04T14:34:49;24.50;85.30
31455;DHT22;18084;53.028;8.834;2023-06-04T14:37:14;24.50;88.00
31455;DHT22;18084;53.028;8.834;2023-06-04T14:39:40;24.60;92.90
31455;DHT22;18084;53.028;8.834;2023-06-04T14:42:05;24.60;93.90
31455;DHT22;18084;53.028;8.834;2023-06-04T14:44:31;24.50;94.70
31455;DHT22;18084;53.028;8.834;2023-06-04T14:46:58;24.60;96.20
31455;DHT22;18084;53.028;8.834;2023-06-04T14:49:23;24.90;96.10
31455;DHT22;18084;53.028;8.834;2023-06-04T14:51:50;24.50;96.10
31455;DHT22;18084;53.028;8.834;2023-06-04T14:54:16;24.30;97.40
31455;DHT22;18084;53.028;8.834;2023-06-04T14:56:42;26.30;99.90
31455;DHT22;18084;53.028;8.834;2023-06-04T14:59:09;24.20;98.80
31455;DHT22;18084;53.028;8.834;2023-06-04T15:01:38;24.60;99.00
31455;DHT22;18084;53.028;8.834;2023-06-04T15:04:04;25.70;99.90
31455;DHT22;18084;53.028;8.834;2023-06-04T15:06:30;24.60;99.00
31455;DHT22;18084;53.028;8.834;2023-06-04T15:08:59;24.60;98.10
31455;DHT22;18084;53.028;8.834;2023-06-04T15:11:25;24.70;99.30
31455;DHT22;18084;53.028;8.834;2023-06-04T15:13:52;24.70;99.90
31455;DHT22;18084;53.028;8.834;2023-06-04T15:16:17;24.60;99.90
31455;DHT22;18084;53.028;8.834;2023-06-04T15:18:43;24.60;99.90
31455;DHT22;18084;53.028;8.834;2023-06-04T15:21:08;24.60;99.90
31455;DHT22;18084;53.028;8.834;2023-06-04T15:23:40;24.40;99.90
31455;DHT22;18084;53.028;8.834;2023-06-04T15:26:06;24.60;99.90
31455;DHT22;18084;53.028;8.834;2023-06-04T15:28:31;25.60;99.90
31455;DHT22;18084;53.028;8.834;2023-06-04T15:30:57;24.00;99.90
31455;DHT22;18084;53.028;8.834;2023-06-04T15:33:24;24.70;99.90
31455;DHT22;18084;53.028;8.834;2023-06-04T15:35:49;23.90;99.90
31455;DHT22;18084;53.028;8.834;2023-06-04T15:38:15;24.30;99.90
31455;DHT22;18084;53.028;8.834;2023-06-04T15:40:41;23.90;99.90
31455;DHT22;18084;53.028;8.834;2023-06-04T15:43:06;23.70;99.90
31455;DHT22;18084;53.028;8.834;2023-06-04T15:45:32;23.50;99.90
31455;DHT22;18084;53.028;8.834;2023-06-04T15:47:57;23.30;99.90
31455;DHT22;18084;53.028;8.834;2023-06-04T15:50:23;23.30;99.90
31455;DHT22;18084;53.028;8.834;2023-06-04T15:52:49;23.80;99.90
31455;DHT22;18084;53.028;8.834;2023-06-04T15:55:15;23.10;99.90
31455;DHT22;18084;53.028;8.834;2023-06-04T15:57:40;23.30;99.90
31455;DHT22;18084;53.028;8.834;2023-06-04T16:00:07;23.20;99.90
31455;DHT22;18084;53.028;8.834;2023-06-04T16:02:33;23.20;99.90
31455;DHT22;18084;53.028;8.834;2023-06-04T16:04:59;23.40;99.90
31455;DHT22;18084;53.028;8.834;2023-06-04T16:07:24;23.40;99.90
31455;DHT22;18084;53.028;8.834;2023-06-04T16:09:50;23.10;99.90
31455;DHT22;18084;53.028;8.834;2023-06-04T16:12:17;23.10;99.90
31455;DHT22;18084;53.028;8.834;2023-06-04T16:14:43;24.60;99.90
31455;DHT22;18084;53.028;8.834;2023-06-04T16:17:08;22.70;99.90
31455;DHT22;18084;53.028;8.834;2023-06-04T16:19:34;22.70;99.90
31455;DHT22;18084;53.028;8.834;2023-06-04T16:21:59;22.50;99.90
31455;DHT22;18084;53.028;8.834;2023-06-04T16:24:25;22.60;99.90
31455;DHT22;18084;53.028;8.834;2023-06-04T16:26:50;22.60;99.90
31455;DHT22;18084;53.028;8.834;2023-06-04T16:29:16;23.70;99.90
31455;DHT22;18084;53.028;8.834;2023-06-04T16:31:41;21.70;99.90
31455;DHT22;18084;53.028;8.834;2023-06-04T16:34:08;22.90;99.90
31455;DHT22;18084;53.028;8.834;2023-06-04T16:36:34;22.50;99.90
31455;DHT22;18084;53.028;8.834;2023-06-04T16:39:01;22.70;99.90
31455;DHT22;18084;53.028;8.834;2023-06-04T16:41:27;22.30;99.90
31455;DHT22;18084;53.028;8.834;2023-06-04T16:43:53;22.20;99.90
31455;DHT22;18084;53.028;8.834;2023-06-04T16:46:18;22.70;99.90
31455;DHT22;18084;53.028;8.834;2023-06-04T16:48:44;22.20;99.90
31455;DHT22;18084;53.028;8.834;2023-06-04T16:51:11;22.10;99.90
31455;DHT22;18084;53.028;8.834;2023-06-04T16:53:36;22.00;99.90
31455;DHT22;18084;53.028;8.834;2023-06-04T16:56:02;22.20;99.90
31455;DHT22;18084;53.028;8.834;2023-06-04T16:58:27;22.10;99.90
31455;DHT22;18084;53.028;8.834;2023-06-04T17:00:56;21.80;99.90
31455;DHT22;18084;53.028;8.834;2023-06-04T17:03:21;21.80;99.90
31455;DHT22;18084;53.028;8.834;2023-06-04T17:05:48;21.50;99.90
31455;DHT22;18084;53.028;8.834;2023-06-04T17:08:15;22.00;99.90
31455;DHT22;18084;53.028;8.834;2023-06-04T17:10:40;21.30;99.90
31455;DHT22;18084;53.028;8.834;2023-06-04T17:13:06;21.30;99.90
31455;DHT22;18084;53.028;8.834;2023-06-04T17:15:32;23.70;99.90
31455;DHT22;18084;53.028;8.834;2023-06-04T17:17:57;21.10;99.90
31455;DHT22;18084;53.028;8.834;2023-06-04T17:20:27;21.00;99.90
31455;DHT22;18084;53.028;8.834;2023-06-04T17:22:53;20.90;99.90
31455;DHT22;18084;53.028;8.834;2023-06-04T17:25:19;20.90;99.90
31455;DHT22;18084;53.028;8.834;2023-06-04T17:27:44;21.10;99.90
31455;DHT22;18084;53.028;8.834;2023-06-04T17:30:11;21.10;99.90
31455;DHT22;18084;53.028;8.834;2023-06-04T17:32:36;21.10;99.90
31455;DHT22;18084;53.028;8.834;2023-06-04T17:35:02;21.00;99.90
31455;DHT22;18084;53.028;8.834;2023-06-04T17:37:27;21.00;99.90
31455;DHT22;18084;53.028;8.834;2023-06-04T17:39:53;20.90;99.90
31455;DHT22;18084;53.028;8.834;2023-06-04T17:42:19;20.80;99.90
31455;DHT22;18084;53.028;8.834;2023-06-04T17:44:44;20.60;99.90
31455;DHT22;18084;53.028;8.834;2023-06-04T17:47:09;20.60;99.90
31455;DHT22;18084;53.028;8.834;2023-06-04T17:49:35;20.80;99.90
31455;DHT22;18084;53.028;8.834;2023-06-04T17:52:00;20.50;99.90
31455;DHT22;18084;53.028;8.834;2023-06-04T17:54:26;20.40;99.90
31455;DHT22;18084;53.028;8.834;2023-06-04T17:56:52;20.10;99.90
31455;DHT22;18084;53.028;8.834;2023-06-04T17:59:17;19.80;99.90
31455;DHT22;18084;53.028;8.834;2023-06-04T18:01:43;19.60;99.90
31455;DHT22;18084;53.028;8.834;2023-06-04T18:04:08;19.40;99.90
31455;DHT22;18084;53.028;8.834;2023-06-04T18:06:34;19.40;99.90
31455;DHT22;18084;53.028;8.834;2023-06-04T18:09:01;19.30;99.90
31455;DHT22;18084;53.028;8.834;2023-06-04T18:11:30;19.20;99.90
31455;DHT22;18084;53.028;8.834;2023-06-04T18:13:55;19.20;99.90
31455;DHT22;18084;53.028;8.834;2023-06-04T18:16:21;20.90;99.90
31455;DHT22;18084;53.028;8.834;2023-06-04T18:18:46;19.10;99.90
31455;DHT22;18084;53.028;8.834;2023-06-04T18:21:12;18.90;99.90
31455;DHT22;18084;53.028;8.834;2023-06-04T18:23:38;18.80;99.90
31455;DHT22;18084;53.028;8.834;2023-06-04T18:26:03;19.80;99.90
31455;DHT22;18084;53.028;8.834;2023-06-04T18:28:29;18.70;99.90
31455;DHT22;18084;53.028;8.834;2023-06-04T18:30:55;18.60;99.90
31455;DHT22;18084;53.028;8.834;2023-06-04T18:33:23;18.50;99.90
31455;DHT22;18084;53.028;8.834;2023-06-04T18:35:52;18.40;99.90
31455;DHT22;18084;53.028;8.834;2023-06-04T18:38:18;18.20;99.90
31455;DHT22;18084;53.028;8.834;2023-06-04T18:40:43;18.10;99.90
31455;DHT22;18084;53.028;8.834;2023-06-04T18:43:09;18.10;99.90
31455;DHT22;18084;53.028;8.834;2023-06-04T18:45:35;18.00;99.90
31455;DHT22;18084;53.028;8.834;2023-06-04T18:48:01;17.80;99.90
31455;DHT22;18084;53.028;8.834;2023-06-04T18:50:26;17.80;99.90
31455;DHT22;18084;53.028;8.834;2023-06-04T18:52:53;18.20;1.00
31455;DHT22;18084;53.028;8.834;2023-06-04T18:55:19;17.60;1.00
31455;DHT22;18084;53.028;8.834;2023-06-04T18:57:47;17.50;1.00
31455;DHT22;18084;53.028;8.834;2023-06-04T19:00:13;17.40;1.00
31455;DHT22;18084;53.028;8.834;2023-06-04T19:02:39;17.30;1.00
31455;DHT22;18084;53.028;8.834;2023-06-04T19:05:06;17.10;10.80
31455;DHT22;18084;53.028;8.834;2023-06-04T19:07:32;17.00;48.30
31455;DHT22;18084;53.028;8.834;2023-06-04T19:10:00;16.90;90.20
31455;DHT22;18084;53.028;8.834;2023-06-04T19:12:26;16.90;94.40
31455;DHT22;18084;53.028;8.834;2023-06-04T19:14:52;16.80;99.90
31455;DHT22;18084;53.028;8.834;2023-06-04T19:19:48;16.60;99.90
31455;DHT22;18084;53.028;8.834;2023-06-04T19:22:14;16.60;99.90
31455;DHT22;18084;53.028;8.834;2023-06-04T19:24:40;16.40;99.90
31455;DHT22;18084;53.028;8.834;2023-06-04T19:27:05;16.60;99.90
31455;DHT22;18084;53.028;8.834;2023-06-04T19:29:31;16.50;99.90
31455;DHT22;18084;53.028;8.834;2023-06-04T19:31:57;16.40;99.90
31455;DHT22;18084;53.028;8.834;2023-06-04T19:34:23;17.90;99.90
31455;DHT22;18084;53.028;8.834;2023-06-04T19:36:48;16.20;1.00
31455;DHT22;18084;53.028;8.834;2023-06-04T19:39:15;16.20;1.00
31455;DHT22;18084;53.028;8.834;2023-06-04T19:41:41;16.00;43.40
31455;DHT22;18084;53.028;8.834;2023-06-04T19:44:06;17.20;99.90
31455;DHT22;18084;53.028;8.834;2023-06-04T19:46:32;16.40;99.90
31455;DHT22;18084;53.028;8.834;2023-06-04T19:51:25;15.70;99.90
31455;DHT22;18084;53.028;8.834;2023-06-04T19:53:51;15.50;99.90
31455;DHT22;18084;53.028;8.834;2023-06-04T19:56:17;15.40;1.00
31455;DHT22;18084;53.028;8.834;2023-06-04T19:58:45;15.40;99.90
31455;DHT22;18084;53.028;8.834;2023-06-04T20:01:11;15.10;99.90
31455;DHT22;18084;53.028;8.834;2023-06-04T20:03:37;15.30;99.90
31455;DHT22;18084;53.028;8.834;2023-06-04T20:06:04;15.40;99.90
31455;DHT22;18084;53.028;8.834;2023-06-04T20:08:30;15.40;99.90
31455;DHT22;18084;53.028;8.834;2023-06-04T20:10:56;15.20;99.90
31455;DHT22;18084;53.028;8.834;2023-06-04T20:13:21;15.00;1.00
31455;DHT22;18084;53.028;8.834;2023-06-04T20:15:46;14.90;99.90
31455;DHT22;18084;53.028;8.834;2023-06-04T20:18:13;14.90;60.70
31455;DHT22;18084;53.028;8.834;2023-06-04T20:20:39;15.00;1.00
31455;DHT22;18084;53.028;8.834;2023-06-04T20:23:04;14.90;99.90
31455;DHT22;18084;53.028;8.834;2023-06-04T20:25:30;14.80;99.90
31455;DHT22;18084;53.028;8.834;2023-06-04T20:27:55;14.80;99.90
31455;DHT22;18084;53.028;8.834;2023-06-04T20:30:21;14.90;82.30
31455;DHT22;18084;53.028;8.834;2023-06-04T20:32:47;14.80;99.90
31455;DHT22;18084;53.028;8.834;2023-06-04T20:35:13;14.80;99.90
31455;DHT22;18084;53.028;8.834;2023-06-04T20:37:39;14.80;99.90